Time;durP1;ratioP1;P1;durP2;ratioP2;P2;SDS_P1;SDS_P2;PMS_P1;PMS_P2;Temp;Humidity;BMP_temperature;BMP_pressure;BME280_temperature;BME280_humidity;BME280_pressure;Samples;Min_cycle;Max_cycle;Signal;HPM_P1;HPM_P2
2024/02/03 00:00:35;;;;;;;992.60;920.53;;;8.60;99.90;;;;;;4973204;28;20493;-76
2024/02/03 00:03:02;;;;;;;1019.00;946.00;;;8.70;99.90;;;;;;4974080;28;20472;-76
2024/02/03 00:05:29;;;;;;;1020.80;947.60;;;8.50;99.90;;;;;;4964655;28;20525;-76
2024/02/03 00:07:56;;;;;;;1027.07;952.43;;;8.60;99.90;;;;;;4973561;28;20483;-76
2024/02/03 00:10:23;;;;;;;1044.07;967.47;;;8.60;99.90;;;;;;4975103;28;20454;-76
2024/02/03 00:12:50;;;;;;;1069.23;990.40;;;8.50;99.90;;;;;;4965152;28;20479;-76
2024/02/03 00:15:16;;;;;;;1050.63;972.83;;;8.60;99.90;;;;;;4971000;28;20454;-76
2024/02/03 00:17:45;;;;;;;1054.57;975.37;;;8.60;99.90;;;;;;4976495;28;20518;-76
2024/02/03 00:20:13;;;;;;;1063.27;984.53;;;8.60;99.90;;;;;;4962290;28;20469;-75
2024/02/03 00:22:43;;;;;;;1064.27;985.27;;;8.50;99.90;;;;;;4981323;28;20497;-75
2024/02/03 00:25:10;;;;;;;1133.37;999.90;;;8.50;99.90;;;;;;4979485;28;20458;-75
2024/02/03 00:27:38;;;;;;;1070.17;977.30;;;8.70;99.90;;;;;;4954697;28;20483;-75
2024/02/03 00:30:06;;;;;;;1073.40;979.67;;;8.60;99.90;;;;;;4958185;28;20460;-76
2024/02/03 00:32:33;;;;;;;1074.90;979.00;;;8.60;99.90;;;;;;4957575;28;20479;-75
2024/02/03 00:35:01;;;;;;;1074.23;979.23;;;8.50;99.90;;;;;;4973121;28;20474;-75
2024/02/03 00:37:28;;;;;;;1078.33;980.67;;;8.60;99.90;;;;;;4979852;28;20472;-75
2024/02/03 00:39:55;;;;;;;1080.93;982.30;;;8.50;99.90;;;;;;4967669;28;20462;-75
2024/02/03 00:42:22;;;;;;;1089.00;992.60;;;8.60;99.90;;;;;;4975264;28;20474;-75
2024/02/03 00:44:48;;;;;;;1088.87;991.27;;;8.60;99.90;;;;;;4976842;28;20761;-76
2024/02/03 00:47:15;;;;;;;1085.30;984.63;;;8.60;99.90;;;;;;4975476;28;20862;-75
2024/02/03 00:49:44;;;;;;;1105.47;999.90;;;8.70;99.90;;;;;;4957352;28;20482;-75
2024/02/03 00:52:12;;;;;;;1113.10;999.90;;;8.60;99.90;;;;;;4972670;28;21030;-75
2024/02/03 00:54:39;;;;;;;1112.73;999.90;;;8.60;99.90;;;;;;4972005;28;20459;-75
2024/02/03 00:57:07;;;;;;;1104.00;999.90;;;8.60;99.90;;;;;;4980835;28;20450;-75
2024/02/03 00:59:34;;;;;;;1103.80;999.90;;;8.60;99.90;;;;;;4968338;28;20462;-75
2024/02/03 01:02:01;;;;;;;1119.50;999.90;;;8.60;99.90;;;;;;4976272;28;20458;-76
2024/02/03 01:04:27;;;;;;;1098.80;999.60;;;8.60;99.90;;;;;;4984479;28;20973;-75
2024/02/03 01:06:55;;;;;;;1098.33;997.03;;;8.60;99.90;;;;;;4982653;28;20971;-76
2024/02/03 01:09:24;;;;;;;1101.40;999.90;;;8.60;99.90;;;;;;4977807;28;20938;-75
2024/02/03 01:11:52;;;;;;;1091.17;990.30;;;8.60;99.90;;;;;;4978484;28;20822;-76
2024/02/03 01:14:19;;;;;;;1090.77;990.40;;;8.60;99.90;;;;;;4958640;28;20463;-76
2024/02/03 01:16:45;;;;;;;1097.70;998.50;;;8.60;99.90;;;;;;4981616;28;20460;-76
2024/02/03 01:19:13;;;;;;;1108.77;999.90;;;8.70;99.90;;;;;;4969564;28;20468;-75
2024/02/03 01:21:41;;;;;;;1093.60;994.17;;;8.70;99.90;;;;;;4975719;28;20469;-75
2024/02/03 01:24:08;;;;;;;1130.80;999.90;;;8.70;99.90;;;;;;4975969;28;20561;-76
2024/02/03 01:26:36;;;;;;;1122.70;999.90;;;8.60;99.90;;;;;;4982094;28;20450;-75
2024/02/03 01:29:02;;;;;;;1090.70;995.47;;;8.60;99.90;;;;;;4983385;28;20492;-76
2024/02/03 01:31:29;;;;;;;1097.47;999.90;;;8.70;99.90;;;;;;4968218;28;20826;-76
2024/02/03 01:33:58;;;;;;;1092.47;994.80;;;8.60;99.90;;;;;;4976011;28;20859;-75
2024/02/03 01:36:24;;;;;;;1089.20;992.57;;;8.70;99.90;;;;;;4975728;28;20475;-76
2024/02/03 01:38:52;;;;;;;1056.50;962.20;;;8.60;99.90;;;;;;4977124;28;20952;-75
2024/02/03 01:41:19;;;;;;;1052.97;956.60;;;8.60;99.90;;;;;;4955563;28;20455;-76
2024/02/03 01:43:47;;;;;;;1061.03;965.00;;;8.60;99.90;;;;;;4956581;28;20476;-76
2024/02/03 01:46:14;;;;;;;1046.73;951.13;;;8.60;99.90;;;;;;4956550;28;20462;-75
2024/02/03 01:48:43;;;;;;;1071.40;975.67;;;8.60;99.90;;;;;;4968639;28;21032;-76
2024/02/03 01:51:12;;;;;;;1068.87;972.57;;;8.60;99.90;;;;;;4975097;28;20602;-75
2024/02/03 01:53:41;;;;;;;1069.17;972.60;;;8.60;99.90;;;;;;4975401;28;20486;-75
2024/02/03 01:56:08;;;;;;;1074.40;979.13;;;8.60;99.90;;;;;;4975718;28;20950;-76
2024/02/03 01:58:36;;;;;;;1070.03;973.47;;;8.60;99.90;;;;;;4983323;28;20505;-75
2024/02/03 02:01:05;;;;;;;1077.67;981.37;;;8.60;99.90;;;;;;4982552;28;20945;-75
2024/02/03 02:03:32;;;;;;;1070.73;974.63;;;8.60;99.90;;;;;;4967522;28;20479;-76
2024/02/03 02:05:59;;;;;;;1040.53;944.93;;;8.60;99.90;;;;;;4975374;28;20454;-75
2024/02/03 02:08:33;;;;;;;1049.67;954.07;;;8.60;99.90;;;;;;4983004;28;20482;-75
2024/02/03 02:11:00;;;;;;;1042.77;947.77;;;8.60;99.90;;;;;;4975117;28;20455;-75
2024/02/03 02:13:27;;;;;;;1054.97;958.10;;;8.60;99.90;;;;;;4974865;28;20483;-75
2024/02/03 02:15:54;;;;;;;1051.03;954.63;;;8.60;99.90;;;;;;4981405;28;20461;-75
2024/02/03 02:18:24;;;;;;;1045.20;948.70;;;8.60;99.90;;;;;;4959045;28;20459;-76
2024/02/03 02:20:53;;;;;;;1050.10;952.93;;;8.60;99.90;;;;;;4969007;28;20459;-76
2024/02/03 02:23:19;;;;;;;1056.07;958.43;;;8.70;99.90;;;;;;4981367;28;20560;-76
2024/02/03 02:25:47;;;;;;;1051.33;954.27;;;8.70;99.90;;;;;;4955660;28;20936;-75
2024/02/03 02:28:13;;;;;;;1022.67;927.20;;;8.70;99.90;;;;;;4973648;28;20487;-75
2024/02/03 02:30:41;;;;;;;1040.93;944.80;;;8.70;99.90;;;;;;4973971;28;20906;-75
2024/02/03 02:33:09;;;;;;;1050.30;954.43;;;8.70;99.90;;;;;;4974541;28;20570;-76
2024/02/03 02:35:36;;;;;;;1052.50;955.97;;;8.60;99.90;;;;;;4979291;28;20580;-75
2024/02/03 02:38:04;;;;;;;1055.13;957.83;;;8.60;99.90;;;;;;4970754;28;20450;-76
2024/02/03 02:40:31;;;;;;;1056.10;959.80;;;8.70;99.90;;;;;;4971501;28;20959;-75
2024/02/03 02:42:58;;;;;;;1047.57;951.90;;;8.60;99.90;;;;;;4955218;28;20472;-76
2024/02/03 02:45:24;;;;;;;1041.47;945.37;;;8.70;99.90;;;;;;4955326;28;20494;-76
2024/02/03 02:47:51;;;;;;;1050.90;955.50;;;8.70;99.90;;;;;;4961019;28;20478;-75
2024/02/03 02:50:19;;;;;;;1051.43;954.97;;;8.70;99.90;;;;;;4980700;28;20466;-75
2024/02/03 02:52:46;;;;;;;1060.87;964.70;;;8.70;99.90;;;;;;4979539;28;20568;-75
2024/02/03 02:55:14;;;;;;;1111.93;999.90;;;8.70;99.90;;;;;;4960810;28;20459;-75
2024/02/03 02:57:41;;;;;;;1095.97;998.67;;;8.80;99.90;;;;;;4955239;28;20487;-75
2024/02/03 03:00:11;;;;;;;1105.10;999.90;;;8.80;99.90;;;;;;4978906;28;20454;-75
2024/02/03 03:02:38;;;;;;;1111.97;999.90;;;8.80;99.90;;;;;;4966622;28;20946;-75
2024/02/03 03:05:07;;;;;;;1116.53;999.90;;;8.80;99.90;;;;;;4974614;28;20459;-76
2024/02/03 03:07:34;;;;;;;1117.80;999.90;;;8.70;99.90;;;;;;4974175;28;20473;-76
2024/02/03 03:10:01;;;;;;;1100.10;999.90;;;8.80;99.90;;;;;;4981193;28;20465;-75
2024/02/03 03:12:29;;;;;;;1112.80;999.90;;;8.80;99.90;;;;;;4956301;28;20482;-75
2024/02/03 03:14:56;;;;;;;1099.67;999.90;;;8.80;99.90;;;;;;4975602;28;20462;-74
2024/02/03 03:17:23;;;;;;;1095.83;999.90;;;8.80;99.90;;;;;;4981566;28;20453;-75
2024/02/03 03:19:50;;;;;;;1116.33;999.90;;;8.80;99.90;;;;;;4973905;28;20473;-75
2024/02/03 03:22:18;;;;;;;1119.30;999.90;;;8.80;99.90;;;;;;4958522;28;20545;-75
2024/02/03 03:24:46;;;;;;;1094.60;999.90;;;8.80;99.90;;;;;;4959450;28;20458;-75
2024/02/03 03:27:12;;;;;;;1088.30;994.23;;;8.80;99.90;;;;;;4981056;28;20466;-75
2024/02/03 03:29:41;;;;;;;1100.43;999.90;;;8.80;99.90;;;;;;4968451;28;20491;-75
2024/02/03 03:32:08;;;;;;;1091.93;998.70;;;8.80;99.90;;;;;;4954745;28;20857;-76
2024/02/03 03:34:35;;;;;;;1098.03;999.90;;;8.80;99.90;;;;;;4966188;28;20518;-75
2024/02/03 03:37:02;;;;;;;1095.57;999.90;;;8.80;99.90;;;;;;4980958;28;20465;-75
2024/02/03 03:39:29;;;;;;;1092.87;999.90;;;9.00;99.90;;;;;;4955539;28;20975;-75
2024/02/03 03:41:56;;;;;;;1108.50;999.90;;;8.80;99.90;;;;;;4968333;28;20838;-75
2024/02/03 03:44:22;;;;;;;1119.27;999.90;;;8.80;99.90;;;;;;4973679;28;20455;-75
2024/02/03 03:46:50;;;;;;;1093.10;999.90;;;8.90;99.90;;;;;;4973685;28;20871;-75
2024/02/03 03:49:18;;;;;;;1090.70;999.90;;;9.00;99.90;;;;;;4982720;28;20490;-75
2024/02/03 03:51:45;;;;;;;1078.23;987.93;;;8.90;99.90;;;;;;4984690;28;20450;-76
2024/02/03 03:54:12;;;;;;;1073.90;984.70;;;8.90;99.90;;;;;;4959685;28;20486;-75
2024/02/03 03:56:38;;;;;;;1059.23;970.37;;;8.90;99.90;;;;;;4969896;28;20450;-75
2024/02/03 03:59:05;;;;;;;1069.50;981.30;;;8.90;99.90;;;;;;4977028;28;20469;-75
2024/02/03 04:01:32;;;;;;;1072.97;985.73;;;8.90;99.90;;;;;;4980889;28;20459;-75
2024/02/03 04:04:00;;;;;;;1065.90;979.50;;;8.90;99.90;;;;;;4980792;28;20479;-76
2024/02/03 04:06:27;;;;;;;1061.47;975.80;;;8.90;99.90;;;;;;4983926;28;20458;-76
2024/02/03 04:08:54;;;;;;;1053.10;968.40;;;9.00;99.90;;;;;;4978560;28;20487;-75
2024/02/03 04:11:21;;;;;;;1048.53;963.37;;;9.00;99.90;;;;;;4979541;28;20520;-75
2024/02/03 04:13:48;;;;;;;1020.53;936.27;;;9.00;99.90;;;;;;4972731;28;20477;-76
2024/02/03 04:16:15;;;;;;;991.07;907.90;;;9.00;99.90;;;;;;4982859;28;20457;-76
2024/02/03 04:18:42;;;;;;;993.40;910.00;;;9.00;99.90;;;;;;4971097;28;20449;-76
2024/02/03 04:21:10;;;;;;;969.17;887.17;;;9.00;99.90;;;;;;4960132;28;20456;-74
2024/02/03 04:23:37;;;;;;;991.43;909.03;;;9.10;99.90;;;;;;4965531;28;20479;-75
2024/02/03 04:26:04;;;;;;;997.17;914.93;;;9.10;99.90;;;;;;4979341;28;20955;-76
2024/02/03 04:28:31;;;;;;;1000.93;918.67;;;9.00;99.90;;;;;;4970343;28;20480;-76
2024/02/03 04:30:58;;;;;;;999.87;918.37;;;9.00;99.90;;;;;;4967966;28;20458;-75
2024/02/03 04:33:25;;;;;;;982.57;902.07;;;9.10;99.90;;;;;;4981216;28;20863;-75
2024/02/03 04:35:52;;;;;;;980.47;900.17;;;9.00;99.90;;;;;;4973133;28;20451;-76
2024/02/03 04:38:20;;;;;;;972.87;893.30;;;9.20;99.90;;;;;;4971517;28;20864;-75
2024/02/03 04:40:47;;;;;;;966.03;887.07;;;9.10;99.90;;;;;;4958737;28;20459;-75
2024/02/03 04:43:14;;;;;;;955.17;877.17;;;9.10;99.90;;;;;;4973317;28;20847;-75
2024/02/03 04:45:41;;;;;;;951.50;873.50;;;9.10;99.90;;;;;;4973360;28;20553;-75
2024/02/03 04:48:08;;;;;;;943.50;865.97;;;9.10;99.90;;;;;;4973111;28;20451;-75
2024/02/03 04:50:35;;;;;;;939.73;862.57;;;9.10;99.90;;;;;;4977088;28;20451;-75
2024/02/03 04:53:02;;;;;;;926.07;848.47;;;9.10;99.90;;;;;;4966940;28;20481;-75
2024/02/03 04:55:30;;;;;;;945.97;867.67;;;9.10;99.90;;;;;;4978135;28;21054;-75
2024/02/03 04:57:57;;;;;;;950.23;871.13;;;9.10;99.90;;;;;;4953629;28;20473;-75
2024/02/03 05:00:23;;;;;;;929.63;851.83;;;9.10;99.90;;;;;;4971658;28;20542;-75
2024/02/03 05:02:50;;;;;;;928.87;851.17;;;9.10;99.90;;;;;;4975113;28;20479;-75
2024/02/03 05:05:17;;;;;;;919.83;843.03;;;9.10;99.90;;;;;;4962352;28;20455;-74
2024/02/03 05:07:46;;;;;;;928.83;851.43;;;9.10;99.90;;;;;;4972930;28;20498;-75
2024/02/03 05:10:13;;;;;;;911.87;834.00;;;9.10;99.90;;;;;;4972654;28;20533;-75
2024/02/03 05:12:41;;;;;;;909.50;832.50;;;9.10;99.90;;;;;;4977407;28;20841;-75
2024/02/03 05:15:08;;;;;;;925.17;847.40;;;9.10;99.90;;;;;;4963459;28;20462;-74
2024/02/03 05:17:35;;;;;;;923.77;845.90;;;9.10;99.90;;;;;;4960715;28;20459;-74
2024/02/03 05:20:02;;;;;;;919.80;842.07;;;9.20;99.90;;;;;;4975859;28;20447;-74
2024/02/03 05:22:29;;;;;;;920.33;843.00;;;9.10;99.90;;;;;;4976264;28;20485;-74
2024/02/03 05:24:56;;;;;;;902.60;825.13;;;9.10;99.90;;;;;;4976267;28;20458;-74
2024/02/03 05:27:22;;;;;;;910.27;832.37;;;9.20;99.90;;;;;;4981930;28;20450;-74
2024/02/03 05:29:51;;;;;;;904.87;826.67;;;9.10;99.90;;;;;;4969926;28;20483;-74
2024/02/03 05:32:18;;;;;;;886.93;808.70;;;9.20;99.90;;;;;;4981243;28;20470;-74
2024/02/03 05:34:45;;;;;;;885.47;807.47;;;9.10;99.90;;;;;;4974354;28;20454;-74
2024/02/03 05:37:11;;;;;;;885.17;807.70;;;9.10;99.90;;;;;;4971016;28;20855;-73
2024/02/03 05:39:38;;;;;;;887.00;810.20;;;9.20;99.90;;;;;;4980072;28;20451;-74
2024/02/03 05:42:05;;;;;;;881.27;804.27;;;9.20;99.90;;;;;;4979855;28;20536;-73
2024/02/03 05:44:32;;;;;;;881.33;804.33;;;9.20;99.90;;;;;;4967916;28;20455;-74
2024/02/03 05:47:00;;;;;;;884.63;808.37;;;9.20;99.90;;;;;;4975460;28;20481;-74
2024/02/03 05:49:27;;;;;;;877.33;800.73;;;9.20;99.90;;;;;;4983532;28;20888;-74
2024/02/03 05:51:54;;;;;;;883.70;808.13;;;9.20;99.90;;;;;;4975374;28;20465;-73
2024/02/03 05:54:21;;;;;;;876.87;800.57;;;9.20;99.90;;;;;;4975634;28;20960;-74
2024/02/03 05:56:47;;;;;;;860.60;784.00;;;9.20;99.90;;;;;;4980896;28;20489;-73
2024/02/03 05:59:14;;;;;;;856.77;780.57;;;9.30;99.90;;;;;;4977553;28;20470;-73
2024/02/03 06:01:41;;;;;;;863.17;786.57;;;9.20;99.90;;;;;;4959943;28;20465;-73
2024/02/03 06:04:11;;;;;;;839.70;763.70;;;9.30;99.90;;;;;;4975470;28;20483;-73
2024/02/03 06:06:38;;;;;;;835.03;760.87;;;9.30;99.90;;;;;;4968191;28;20466;-73
2024/02/03 06:09:05;;;;;;;828.60;754.20;;;9.30;99.90;;;;;;4975418;28;20487;-73
2024/02/03 06:11:32;;;;;;;838.90;765.33;;;9.30;99.90;;;;;;4978402;28;20544;-73
2024/02/03 06:13:58;;;;;;;822.07;748.53;;;9.30;99.90;;;;;;4971802;28;20505;-73
2024/02/03 06:16:25;;;;;;;834.03;759.97;;;9.40;99.90;;;;;;4981253;28;20839;-73
2024/02/03 06:18:52;;;;;;;836.30;762.07;;;9.30;99.90;;;;;;4969792;28;20837;-73
2024/02/03 06:21:20;;;;;;;841.50;767.87;;;9.40;99.90;;;;;;4973625;28;20460;-73
2024/02/03 06:23:47;;;;;;;842.47;769.43;;;9.40;99.90;;;;;;4969242;28;20488;-75
2024/02/03 06:26:14;;;;;;;840.50;767.70;;;9.40;99.90;;;;;;4982618;28;20478;-74
2024/02/03 06:28:41;;;;;;;838.93;766.90;;;9.40;99.90;;;;;;4974996;28;20465;-73
2024/02/03 06:31:07;;;;;;;812.33;740.40;;;9.40;99.90;;;;;;4974366;28;20466;-73
2024/02/03 06:33:34;;;;;;;821.03;749.83;;;9.40;99.90;;;;;;4979551;28;20472;-73
2024/02/03 06:36:01;;;;;;;818.47;747.40;;;9.40;99.90;;;;;;4955225;28;20463;-73
2024/02/03 06:38:29;;;;;;;825.73;754.87;;;9.40;99.90;;;;;;4955010;28;20481;-73
2024/02/03 06:40:56;;;;;;;833.70;762.83;;;9.40;99.90;;;;;;4954895;28;20459;-74
2024/02/03 06:43:23;;;;;;;831.13;759.30;;;9.30;99.90;;;;;;4954862;28;21006;-74
2024/02/03 06:45:50;;;;;;;834.23;760.83;;;9.30;99.90;;;;;;4955297;28;20452;-74
2024/02/03 06:48:17;;;;;;;824.20;750.07;;;9.20;99.90;;;;;;4955101;28;20462;-74
2024/02/03 06:50:44;;;;;;;831.90;756.33;;;9.40;99.90;;;;;;4954982;28;21028;-74
2024/02/03 06:53:10;;;;;;;832.27;756.37;;;9.20;99.90;;;;;;4955150;28;20553;-73
2024/02/03 06:55:39;;;;;;;865.70;786.60;;;9.40;99.90;;;;;;4955144;28;20456;-74
2024/02/03 06:58:05;;;;;;;873.10;793.13;;;9.20;99.90;;;;;;4954535;28;20471;-74
2024/02/03 07:00:32;;;;;;;883.57;802.03;;;9.20;99.90;;;;;;4954876;28;20475;-75
2024/02/03 07:02:59;;;;;;;887.77;806.03;;;9.20;99.90;;;;;;4961664;28;20571;-74
2024/02/03 07:05:26;;;;;;;841.47;761.47;;;9.20;99.90;;;;;;4974156;28;20551;-74
2024/02/03 07:07:53;;;;;;;801.90;721.97;;;9.20;99.90;;;;;;4982001;28;20463;-74
2024/02/03 07:10:20;;;;;;;817.50;737.30;;;9.30;99.90;;;;;;4983025;28;20478;-74
2024/02/03 07:12:49;;;;;;;832.07;751.90;;;9.40;99.90;;;;;;4972144;28;20482;-74
2024/02/03 07:15:16;;;;;;;810.90;731.70;;;9.40;99.90;;;;;;4980848;28;20461;-74
2024/02/03 07:17:42;;;;;;;818.53;739.27;;;9.30;99.90;;;;;;4954428;28;20555;-75
2024/02/03 07:20:11;;;;;;;808.60;730.03;;;9.30;99.90;;;;;;4953924;28;20551;-75
2024/02/03 07:22:38;;;;;;;813.10;734.50;;;9.30;99.90;;;;;;4977270;28;20558;-75
2024/02/03 07:25:07;;;;;;;809.30;730.87;;;9.40;99.90;;;;;;4953439;28;20460;-75
2024/02/03 07:27:33;;;;;;;819.93;740.67;;;9.40;99.90;;;;;;4978239;28;20459;-75
2024/02/03 07:30:02;;;;;;;815.10;735.90;;;9.40;99.90;;;;;;4968879;28;20883;-75
2024/02/03 07:32:29;;;;;;;827.77;748.47;;;9.40;99.90;;;;;;4973356;28;20489;-74
2024/02/03 07:34:56;;;;;;;821.07;742.20;;;9.40;99.90;;;;;;4973648;28;20549;-75
2024/02/03 07:37:23;;;;;;;808.80;729.30;;;9.50;99.90;;;;;;4972358;28;20462;-73
2024/02/03 07:39:49;;;;;;;812.70;733.23;;;9.50;99.90;;;;;;4973303;28;20459;-74
2024/02/03 07:42:16;;;;;;;809.03;731.30;;;9.50;99.90;;;;;;4973368;28;20501;-75
2024/02/03 07:44:43;;;;;;;809.20;732.70;;;9.50;99.90;;;;;;4973377;28;21013;-75
2024/02/03 07:47:13;;;;;;;807.63;730.07;;;9.50;99.90;;;;;;4973576;28;20450;-75
2024/02/03 07:49:40;;;;;;;820.40;744.47;;;9.60;99.90;;;;;;4968022;28;21006;-74
2024/02/03 07:52:07;;;;;;;813.50;738.10;;;9.60;99.90;;;;;;4953680;28;20463;-75
2024/02/03 07:54:34;;;;;;;803.37;728.53;;;9.60;99.90;;;;;;4965542;28;20463;-75
2024/02/03 07:57:00;;;;;;;800.43;726.70;;;9.60;99.90;;;;;;4973122;28;20462;-74
2024/02/03 07:59:28;;;;;;;799.17;725.57;;;9.70;99.90;;;;;;4970617;28;20486;-75
2024/02/03 08:01:55;;;;;;;803.70;730.90;;;9.70;99.90;;;;;;4953410;28;20456;-74
2024/02/03 08:04:23;;;;;;;798.40;727.00;;;9.70;99.90;;;;;;4955463;28;20460;-75
2024/02/03 08:06:50;;;;;;;790.77;719.30;;;9.70;99.90;;;;;;4978527;28;20835;-75
2024/02/03 08:09:16;;;;;;;790.67;719.60;;;9.80;99.90;;;;;;4975490;28;20455;-74
2024/02/03 08:11:44;;;;;;;809.77;738.37;;;9.80;99.90;;;;;;4972809;28;20455;-75
2024/02/03 08:14:11;;;;;;;804.07;733.40;;;9.80;99.90;;;;;;4959519;28;20482;-73
2024/02/03 08:16:37;;;;;;;800.40;730.90;;;9.80;99.90;;;;;;4964875;28;20473;-75
2024/02/03 08:19:04;;;;;;;820.60;749.03;;;9.80;99.90;;;;;;4972120;28;20473;-75
2024/02/03 08:21:32;;;;;;;808.77;739.23;;;9.80;99.90;;;;;;4969006;28;20455;-74
2024/02/03 08:24:01;;;;;;;801.57;731.87;;;9.80;99.90;;;;;;4967986;28;20864;-74
2024/02/03 08:26:28;;;;;;;804.30;734.20;;;9.80;99.90;;;;;;4977772;28;20837;-75
2024/02/03 08:28:55;;;;;;;794.47;725.07;;;9.80;99.90;;;;;;4966682;28;20470;-74
2024/02/03 08:31:21;;;;;;;836.43;757.50;;;9.80;99.90;;;;;;4980712;28;20462;-75
2024/02/03 08:33:48;;;;;;;810.47;737.97;;;9.80;99.90;;;;;;4964774;28;20475;-76
2024/02/03 08:36:15;;;;;;;790.33;718.17;;;9.80;99.90;;;;;;4954342;28;20463;-77
2024/02/03 08:38:43;;;;;;;796.83;724.53;;;9.80;99.90;;;;;;4980918;28;20947;-77
2024/02/03 08:41:10;;;;;;;796.47;725.87;;;9.90;99.90;;;;;;4972576;28;20474;-76
2024/02/03 08:43:37;;;;;;;818.43;747.23;;;9.90;99.90;;;;;;4972918;28;20478;-77
2024/02/03 08:46:04;;;;;;;805.27;734.00;;;10.00;99.90;;;;;;4973297;28;20536;-77
2024/02/03 08:48:31;;;;;;;801.90;730.93;;;10.00;99.90;;;;;;4972802;28;20454;-77
2024/02/03 08:50:58;;;;;;;805.33;735.23;;;10.00;99.90;;;;;;4976181;28;21015;-77
2024/02/03 08:53:24;;;;;;;801.53;731.60;;;10.00;99.90;;;;;;4974467;28;20868;-77
2024/02/03 08:55:53;;;;;;;813.27;743.47;;;10.00;99.90;;;;;;4957349;28;20491;-76
2024/02/03 08:58:20;;;;;;;816.43;747.67;;;10.00;99.90;;;;;;4972971;28;20466;-75
2024/02/03 09:00:47;;;;;;;825.43;754.97;;;10.00;99.90;;;;;;4987645;28;20450;-77
2024/02/03 09:03:13;;;;;;;825.50;757.27;;;10.00;99.90;;;;;;4977316;28;20471;-77
2024/02/03 09:05:40;;;;;;;855.50;786.17;;;10.00;99.90;;;;;;4976472;28;20481;-78
2024/02/03 09:08:08;;;;;;;855.50;786.47;;;10.00;99.90;;;;;;4976282;28;20459;-77
2024/02/03 09:10:36;;;;;;;885.10;815.83;;;9.90;99.90;;;;;;4976119;28;20514;-77
2024/02/03 09:13:04;;;;;;;927.97;855.97;;;9.90;99.90;;;;;;4975693;28;21076;-77
2024/02/03 09:15:31;;;;;;;933.73;859.93;;;9.90;99.90;;;;;;4967508;28;20459;-77
2024/02/03 09:17:58;;;;;;;939.63;865.67;;;9.90;99.90;;;;;;4984470;28;20454;-76
2024/02/03 09:20:25;;;;;;;937.00;863.00;;;9.90;99.90;;;;;;4983865;28;20453;-76
2024/02/03 09:22:52;;;;;;;937.07;864.37;;;9.90;99.90;;;;;;4975688;28;20470;-76
2024/02/03 09:25:18;;;;;;;971.40;897.10;;;9.90;99.90;;;;;;4976093;28;20457;-77
2024/02/03 09:27:46;;;;;;;971.40;896.73;;;9.90;99.90;;;;;;4975603;28;20834;-76
2024/02/03 09:30:14;;;;;;;956.53;880.67;;;9.90;99.90;;;;;;4965253;28;20565;-77
2024/02/03 09:32:41;;;;;;;964.33;889.03;;;9.90;99.90;;;;;;4975747;28;20855;-77
2024/02/03 09:35:08;;;;;;;974.47;898.30;;;10.00;99.90;;;;;;4983498;28;20453;-77
2024/02/03 09:37:35;;;;;;;957.23;883.77;;;10.00;99.90;;;;;;4974590;28;20514;-75
2024/02/03 09:40:03;;;;;;;977.00;899.90;;;9.90;99.90;;;;;;4973525;28;20993;-77
2024/02/03 09:42:32;;;;;;;981.20;903.13;;;9.90;99.90;;;;;;4975195;28;20493;-77
2024/02/03 09:44:59;;;;;;;989.40;911.63;;;9.90;99.90;;;;;;4982296;28;20446;-77
2024/02/03 09:47:29;;;;;;;989.37;911.77;;;9.90;99.90;;;;;;4971433;28;20453;-77
2024/02/03 09:49:56;;;;;;;979.97;901.20;;;10.00;99.90;;;;;;4975963;28;20458;-77
2024/02/03 09:52:24;;;;;;;969.50;892.27;;;10.00;99.90;;;;;;4975542;28;20476;-77
2024/02/03 09:54:51;;;;;;;971.43;893.03;;;10.00;99.90;;;;;;4955179;28;20455;-77
2024/02/03 09:57:18;;;;;;;972.20;894.20;;;10.00;99.90;;;;;;4980400;28;20493;-76
2024/02/03 09:59:50;;;;;;;974.37;896.77;;;10.10;99.90;;;;;;4959278;28;20857;-77
2024/02/03 10:02:17;;;;;;;961.10;885.37;;;10.20;99.90;;;;;;4982898;28;20528;-77
2024/02/03 10:04:47;;;;;;;967.03;890.47;;;10.10;99.90;;;;;;4955829;28;20460;-77
2024/02/03 10:07:18;;;;;;;964.20;888.40;;;10.10;99.90;;;;;;4955935;28;20459;-77
2024/02/03 10:09:45;;;;;;;980.60;906.33;;;10.10;99.90;;;;;;4968755;28;20462;-77
2024/02/03 10:12:17;;;;;;;986.87;909.37;;;10.10;99.90;;;;;;4975139;28;20481;-77
2024/02/03 10:14:44;;;;;;;985.50;909.80;;;10.20;99.90;;;;;;4980980;28;20462;-77
2024/02/03 10:17:11;;;;;;;977.27;902.60;;;10.20;99.90;;;;;;4962453;28;20456;-77
2024/02/03 10:19:39;;;;;;;986.73;911.17;;;10.20;99.90;;;;;;4959893;28;20459;-78
2024/02/03 10:22:08;;;;;;;961.77;887.10;;;10.20;99.90;;;;;;4975273;28;20455;-77
2024/02/03 10:24:35;;;;;;;975.33;900.27;;;10.40;99.90;;;;;;4971822;28;20462;-77
2024/02/03 10:27:02;;;;;;;962.07;887.17;;;10.60;99.90;;;;;;4965440;28;20446;-77
2024/02/03 10:29:30;;;;;;;970.63;897.07;;;10.50;99.90;;;;;;4971243;28;20486;-77
2024/02/03 10:31:57;;;;;;;961.20;887.43;;;10.40;99.90;;;;;;4979678;28;20834;-77
2024/02/03 10:34:24;;;;;;;957.53;882.23;;;10.50;99.90;;;;;;4976920;28;20538;-78
2024/02/03 10:36:51;;;;;;;978.47;905.00;;;10.60;99.90;;;;;;4977076;28;20884;-78
2024/02/03 10:39:19;;;;;;;969.90;897.80;;;10.60;99.90;;;;;;4968674;28;20459;-77
2024/02/03 10:41:48;;;;;;;961.07;889.67;;;10.50;99.90;;;;;;4971534;28;20447;-76
2024/02/03 10:44:21;;;;;;;971.43;899.33;;;10.40;99.90;;;;;;4968149;28;20455;-77
2024/02/03 10:46:52;;;;;;;977.30;905.30;;;10.40;99.90;;;;;;4970562;28;20451;-77
2024/02/03 10:49:26;;;;;;;943.00;870.87;;;10.40;99.90;;;;;;4981677;28;20484;-76
2024/02/03 10:51:55;;;;;;;952.53;879.10;;;10.40;99.90;;;;;;4965560;28;20862;-74
2024/02/03 10:54:26;;;;;;;964.57;890.97;;;10.40;99.90;;;;;;4983113;28;20454;-75
2024/02/03 10:56:54;;;;;;;950.67;878.43;;;10.40;99.90;;;;;;4970929;28;20954;-76
2024/02/03 10:59:21;;;;;;;967.17;893.83;;;10.40;99.90;;;;;;4969781;28;20464;-77
2024/02/03 11:01:48;;;;;;;973.73;899.03;;;10.40;99.90;;;;;;4965519;28;20457;-76
2024/02/03 11:04:16;;;;;;;973.80;899.80;;;10.40;99.90;;;;;;4975164;28;20490;-77
2024/02/03 11:06:46;;;;;;;958.70;884.77;;;10.40;99.90;;;;;;4963851;28;20886;-77
2024/02/03 11:09:15;;;;;;;971.67;897.83;;;10.50;99.90;;;;;;4963689;28;20450;-77
2024/02/03 11:11:45;;;;;;;973.17;901.23;;;10.50;99.90;;;;;;4981784;28;20489;-77
2024/02/03 11:14:14;;;;;;;975.67;902.17;;;10.60;99.90;;;;;;4965011;28;20475;-76
2024/02/03 11:16:41;;;;;;;970.57;897.80;;;10.70;99.90;;;;;;4954782;28;20458;-76
2024/02/03 11:19:10;;;;;;;962.23;892.50;;;10.80;99.90;;;;;;4954570;28;20785;-77
2024/02/03 11:21:42;;;;;;;955.13;884.50;;;10.80;99.90;;;;;;4953980;28;20503;-77
2024/02/03 11:24:09;;;;;;;958.80;888.90;;;10.70;99.90;;;;;;4969024;28;20525;-77
2024/02/03 11:26:37;;;;;;;946.30;876.10;;;10.80;99.90;;;;;;4975683;28;20454;-76
2024/02/03 11:29:05;;;;;;;951.90;881.50;;;10.80;99.90;;;;;;4966605;28;20963;-76
2024/02/03 11:31:32;;;;;;;936.47;867.67;;;10.90;99.90;;;;;;4972629;28;20484;-76
2024/02/03 11:33:59;;;;;;;937.50;867.77;;;11.10;99.90;;;;;;4968773;28;21001;-76
2024/02/03 11:36:27;;;;;;;905.23;837.00;;;11.10;99.90;;;;;;4973137;28;20478;-76
2024/02/03 11:38:54;;;;;;;885.03;818.50;;;11.10;99.90;;;;;;4967071;28;20459;-77
2024/02/03 11:41:21;;;;;;;864.87;799.53;;;11.20;99.90;;;;;;4971063;28;20971;-76
2024/02/03 11:43:49;;;;;;;867.47;801.60;;;11.10;99.90;;;;;;4954047;28;20666;-77
2024/02/03 11:46:17;;;;;;;846.87;783.17;;;11.10;99.90;;;;;;4970840;28;20839;-76
2024/02/03 11:48:45;;;;;;;835.57;771.40;;;11.10;99.90;;;;;;4973946;28;20825;-76
2024/02/03 11:51:14;;;;;;;835.13;772.10;;;11.10;99.90;;;;;;4980197;28;20528;-77
2024/02/03 11:53:42;;;;;;;828.70;765.00;;;11.20;99.90;;;;;;4970627;28;20627;-77
2024/02/03 11:56:09;;;;;;;821.97;758.50;;;11.10;99.90;;;;;;4972643;28;20460;-76
2024/02/03 11:58:36;;;;;;;827.90;763.20;;;11.10;99.90;;;;;;4971099;28;20477;-76
2024/02/03 12:01:06;;;;;;;827.67;764.17;;;11.10;99.90;;;;;;4972930;28;20450;-76
2024/02/03 12:03:35;;;;;;;845.73;778.50;;;11.10;99.90;;;;;;4977630;28;20487;-76
2024/02/03 12:06:02;;;;;;;830.90;765.83;;;11.30;99.90;;;;;;4968574;28;20458;-76
2024/02/03 12:08:30;;;;;;;822.33;761.97;;;11.40;99.90;;;;;;4974709;28;20518;-77
2024/02/03 12:10:57;;;;;;;834.57;773.53;;;11.40;99.90;;;;;;4973507;28;20488;-76